METAR UND TAF INFORMATION
UBBB 161030Z 18008KT CAVOK 29/16 Q1006 R88/CLRD// NOSIG

 FLUGHAFENKARTE

 RUNWAY INFORMATION
Runway 16 Runway length 8858 ft Runway width 197 ft
Runway elevation 0 ft Runway displaced threshold 0 ft Runway heading 160
Runway 34 Runway length 8858 ft Runway width 197 ft
Runway elevation 0 ft Runway displaced threshold 0 ft Runway heading 340
Runway 18 Runway length 10499 ft Runway width 167 ft
Runway elevation 10 ft Runway displaced threshold 0 ft Runway heading 180
Runway 36 Runway length 10499 ft Runway width 167 ft
Runway elevation 0 ft Runway displaced threshold 444 ft Runway heading 360

 AIRPORT FREQUENCIES
Type APP Name BAKU APP Frequency 129.3 MHZ
Type ATIS Name BAKU ATIS Frequency 126.8 MHZ
Type GCA Name BAKU PRECI Frequency 119.2 MHZ
Type GND Name BAKU GND Frequency 121.7 MHZ
Type RDR Name BAKU RADAR Frequency 120.8 MHZ
Type TWR Name BAKU TWR Frequency 119.2 MHZ

 AIRPORT NEAR NAVIGATION AIDS
Type NDB Name Baku Frequency 470 KHZ
Type NDB Name Baku Frequency 360 KHZ
Type NDB Name Baku Frequency 515 KHZ
Type VOR-DME Name Baku Frequency 114100 KHZ
Type NDB Name Nakhchivan Frequency 493 KHZ